Time;durP1;ratioP1;P1;durP2;ratioP2;P2;SDS_P1;SDS_P2;PMS_P1;PMS_P2;Temp;Humidity;BMP_temperature;BMP_pressure;BME280_temperature;BME280_humidity;BME280_pressure;Samples;Min_cycle;Max_cycle;Signal;HPM_P1;HPM_P2
2022/03/28 00:00:56;;;;;;;13.30;6.63;;;5.70;99.90;;;;;;5013064;28;20198;-72
2022/03/28 00:03:21;;;;;;;8.17;5.87;;;5.70;99.90;;;;;;5013514;28;20185;-72
2022/03/28 00:05:47;;;;;;;11.07;5.43;;;5.70;99.90;;;;;;5013277;28;20177;-72
2022/03/28 00:08:13;;;;;;;12.70;6.07;;;5.60;99.90;;;;;;5013248;28;20668;-72
2022/03/28 00:10:39;;;;;;;9.20;6.23;;;5.60;99.90;;;;;;5012961;28;20548;-72
2022/03/28 00:13:05;;;;;;;11.47;6.83;;;5.50;99.90;;;;;;5013032;28;20239;-72
2022/03/28 00:15:30;;;;;;;8.93;6.10;;;5.50;99.90;;;;;;5013250;28;20414;-73
2022/03/28 00:17:56;;;;;;;17.63;6.40;;;5.50;99.90;;;;;;5012943;28;20411;-72
2022/03/28 00:20:23;;;;;;;11.70;6.47;;;5.40;99.90;;;;;;5013028;28;20186;-72
2022/03/28 00:22:48;;;;;;;13.03;6.40;;;5.40;99.90;;;;;;5012491;28;20194;-72
2022/03/28 00:25:14;;;;;;;10.30;6.50;;;5.40;99.90;;;;;;5013001;28;20413;-73
2022/03/28 00:27:39;;;;;;;9.33;6.17;;;5.30;99.90;;;;;;5013059;28;20259;-72
2022/03/28 00:30:07;;;;;;;11.13;6.87;;;5.30;99.90;;;;;;5012687;28;20179;-72
2022/03/28 00:32:32;;;;;;;9.13;5.53;;;5.20;99.90;;;;;;5012632;28;20219;-72
2022/03/28 00:34:59;;;;;;;14.30;8.37;;;5.20;99.90;;;;;;5012555;28;20770;-72
2022/03/28 00:37:25;;;;;;;13.20;6.60;;;5.20;99.90;;;;;;5012874;28;20186;-73
2022/03/28 00:39:51;;;;;;;10.83;5.97;;;5.20;99.90;;;;;;5012492;28;20499;-72
2022/03/28 00:42:16;;;;;;;10.83;6.40;;;5.10;99.90;;;;;;5012472;28;20223;-72
2022/03/28 00:44:42;;;;;;;13.33;6.40;;;5.10;99.90;;;;;;5012470;28;20640;-72
2022/03/28 00:47:07;;;;;;;19.20;6.73;;;5.10;99.90;;;;;;5012637;28;20658;-72
2022/03/28 00:49:33;;;;;;;10.97;7.20;;;5.00;99.90;;;;;;5012586;28;20185;-73
2022/03/28 00:51:59;;;;;;;16.87;6.57;;;5.00;99.90;;;;;;5012001;28;20266;-73
2022/03/28 00:54:25;;;;;;;14.20;6.63;;;5.00;99.90;;;;;;5012527;28;20182;-73
2022/03/28 00:56:50;;;;;;;9.97;6.63;;;5.00;99.90;;;;;;4994608;28;20417;-72
2022/03/28 00:59:17;;;;;;;11.57;5.60;;;4.90;99.90;;;;;;5012514;28;20208;-72
2022/03/28 02:30:51;;;;;;;17.23;9.00;;;4.00;99.90;;;;;;5936056;23;20368;-70
2022/03/28 02:33:17;;;;;;;12.53;6.40;;;4.00;99.90;;;;;;4984431;28;21170;-73
2022/03/28 02:35:43;;;;;;;14.43;7.47;;;3.90;99.90;;;;;;4971494;28;20978;-73
2022/03/28 02:38:09;;;;;;;10.90;7.53;;;3.90;99.90;;;;;;4971117;28;20404;-73
2022/03/28 02:40:35;;;;;;;15.87;8.33;;;3.90;99.90;;;;;;4959422;28;20283;-73
2022/03/28 02:43:02;;;;;;;14.30;7.80;;;3.90;99.90;;;;;;4953219;28;20462;-73
2022/03/28 02:45:31;;;;;;;13.80;8.10;;;3.90;99.90;;;;;;4954988;28;20501;-73
2022/03/28 02:47:56;;;;;;;16.70;7.90;;;3.80;99.90;;;;;;4956991;28;20421;-73
2022/03/28 02:50:22;;;;;;;11.90;7.90;;;3.80;99.90;;;;;;4956197;29;20410;-73
2022/03/28 02:52:48;;;;;;;11.57;7.77;;;3.70;99.90;;;;;;4956109;28;20628;-73
2022/03/28 02:55:14;;;;;;;15.97;7.30;;;3.70;99.90;;;;;;4956419;28;20167;-73
2022/03/28 02:57:39;;;;;;;18.30;8.60;;;3.70;99.90;;;;;;4956160;28;20221;-73
2022/03/28 03:00:08;;;;;;;15.87;7.70;;;3.70;99.90;;;;;;4956342;29;20451;-73
2022/03/28 03:02:42;;;;;;;13.60;7.70;;;3.70;99.90;;;;;;4955819;28;20196;-73
2022/03/28 03:05:08;;;;;;;13.33;7.47;;;3.70;99.90;;;;;;4957233;28;20420;-73
2022/03/28 03:07:34;;;;;;;14.83;8.50;;;3.70;99.90;;;;;;4956474;28;20430;-73
2022/03/28 03:10:00;;;;;;;13.00;7.33;;;3.70;99.90;;;;;;4956111;28;20551;-73
2022/03/28 03:12:25;;;;;;;14.90;7.50;;;3.70;99.90;;;;;;4955548;28;20937;-73
2022/03/28 03:14:52;;;;;;;16.33;8.47;;;3.60;99.90;;;;;;4956001;28;20530;-72
2022/03/28 03:17:18;;;;;;;20.53;8.77;;;3.60;99.90;;;;;;4955702;28;20260;-73
2022/03/28 03:19:44;;;;;;;17.23;7.50;;;3.50;99.90;;;;;;4955823;28;20421;-72
2022/03/28 03:22:11;;;;;;;18.47;8.37;;;3.50;99.90;;;;;;4955796;28;20963;-73
2022/03/28 03:24:37;;;;;;;24.23;8.73;;;3.50;99.90;;;;;;4956070;28;20961;-73
2022/03/28 03:27:02;;;;;;;20.13;9.47;;;3.50;99.90;;;;;;4955901;28;20418;-73
2022/03/28 03:29:28;;;;;;;16.37;8.63;;;3.40;99.90;;;;;;4955588;28;20183;-73
2022/03/28 03:31:53;;;;;;;13.53;7.97;;;3.40;99.90;;;;;;4955401;28;20219;-73
2022/03/28 03:34:19;;;;;;;14.90;7.50;;;3.40;99.90;;;;;;4955627;29;20205;-73
2022/03/28 03:36:45;;;;;;;20.10;8.60;;;3.40;99.90;;;;;;4955653;29;20185;-73
2022/03/28 03:39:11;;;;;;;15.40;9.00;;;3.30;99.90;;;;;;4955600;29;20655;-73
2022/03/28 03:41:36;;;;;;;23.87;8.50;;;3.30;99.90;;;;;;4955189;28;20500;-72
2022/03/28 03:44:02;;;;;;;14.50;7.97;;;3.30;99.90;;;;;;4955438;29;20190;-73
2022/03/28 03:46:27;;;;;;;15.03;8.30;;;3.30;99.90;;;;;;4955679;28;20178;-73
2022/03/28 03:48:53;;;;;;;15.00;8.10;;;3.30;99.90;;;;;;4955378;29;20190;-73
2022/03/28 03:51:18;;;;;;;20.30;9.10;;;3.30;99.90;;;;;;4955042;28;20215;-73
2022/03/28 03:53:44;;;;;;;13.57;7.13;;;3.20;99.90;;;;;;4955251;29;20275;-73
2022/03/28 03:56:09;;;;;;;15.30;7.77;;;3.20;99.90;;;;;;4954721;28;20651;-73
2022/03/28 03:58:35;;;;;;;17.43;7.70;;;3.20;99.90;;;;;;4955172;29;20543;-72
2022/03/28 04:01:01;;;;;;;15.30;9.10;;;3.20;99.90;;;;;;4954756;28;20205;-73
2022/03/28 04:03:26;;;;;;;14.80;8.47;;;3.20;99.90;;;;;;4955086;29;20181;-73
2022/03/28 04:05:52;;;;;;;18.37;8.93;;;3.10;99.90;;;;;;4955010;29;20576;-73
2022/03/28 04:08:17;;;;;;;18.37;8.30;;;3.10;99.90;;;;;;4955268;29;20190;-73
2022/03/28 04:10:43;;;;;;;13.90;8.93;;;3.10;99.90;;;;;;4954451;28;20256;-73
2022/03/28 04:13:10;;;;;;;12.63;8.03;;;3.10;99.90;;;;;;4955121;28;20173;-73
2022/03/28 04:15:35;;;;;;;24.90;8.63;;;3.10;99.90;;;;;;4953630;29;20238;-72
2022/03/28 04:18:01;;;;;;;18.30;9.07;;;3.10;99.90;;;;;;4954911;29;20420;-73
2022/03/28 04:20:28;;;;;;;15.30;8.40;;;3.10;99.90;;;;;;4954534;29;20185;-73
2022/03/28 04:22:53;;;;;;;22.20;7.90;;;3.00;99.90;;;;;;4954782;28;20199;-73
2022/03/28 04:25:19;;;;;;;19.57;9.27;;;3.00;99.90;;;;;;4954890;28;20472;-74
2022/03/28 04:27:44;;;;;;;19.30;9.60;;;3.00;99.90;;;;;;4954625;29;20481;-74
2022/03/28 04:30:11;;;;;;;18.70;9.13;;;3.00;99.90;;;;;;4954761;29;20182;-73
2022/03/28 04:32:37;;;;;;;22.87;9.07;;;3.00;99.90;;;;;;4954013;28;20227;-73
2022/03/28 04:35:04;;;;;;;13.37;8.33;;;2.90;99.90;;;;;;4954720;28;20409;-73
2022/03/28 04:37:34;;;;;;;19.10;9.70;;;2.90;99.90;;;;;;4954627;28;20421;-73
2022/03/28 04:40:00;;;;;;;17.53;9.27;;;2.90;99.90;;;;;;4954967;28;20832;-73
2022/03/28 04:42:25;;;;;;;23.67;9.40;;;2.90;99.90;;;;;;4954403;28;20519;-73
2022/03/28 04:44:51;;;;;;;20.13;9.57;;;2.80;99.90;;;;;;4954679;29;20501;-73
2022/03/28 04:47:17;;;;;;;22.93;10.83;;;2.80;99.90;;;;;;4954637;29;20188;-73
2022/03/28 04:49:42;;;;;;;17.07;9.13;;;2.80;99.90;;;;;;4954087;28;20236;-73
2022/03/28 04:52:08;;;;;;;19.13;10.47;;;2.90;99.90;;;;;;4954085;28;20217;-73
2022/03/28 04:54:36;;;;;;;17.77;8.87;;;2.90;99.90;;;;;;4954047;29;20174;-73
2022/03/28 04:57:05;;;;;;;16.80;9.07;;;2.90;99.90;;;;;;4954339;28;20182;-74
2022/03/28 04:59:33;;;;;;;16.27;8.83;;;2.90;99.90;;;;;;4953888;28;20478;-74
2022/03/28 05:01:59;;;;;;;16.47;9.50;;;3.00;99.90;;;;;;4957631;28;20448;-74
2022/03/28 05:04:25;;;;;;;26.33;9.57;;;3.00;99.90;;;;;;4955741;29;20926;-74
2022/03/28 05:06:50;;;;;;;17.50;9.33;;;3.00;99.90;;;;;;4955497;28;20180;-74
2022/03/28 05:09:16;;;;;;;16.63;9.73;;;3.00;99.90;;;;;;4953485;28;20637;-74
2022/03/28 05:11:42;;;;;;;22.40;10.90;;;3.00;99.90;;;;;;4953259;28;20207;-73
2022/03/28 05:14:08;;;;;;;24.47;9.47;;;3.10;99.90;;;;;;4954042;28;20203;-74
2022/03/28 05:16:34;;;;;;;24.57;9.93;;;3.00;99.90;;;;;;4953543;28;20430;-74
2022/03/28 05:18:59;;;;;;;16.23;9.63;;;3.00;99.90;;;;;;4953973;28;20472;-73
2022/03/28 05:21:25;;;;;;;17.50;9.27;;;3.00;99.90;;;;;;4953350;28;20749;-74
2022/03/28 05:23:50;;;;;;;19.30;9.97;;;3.00;99.90;;;;;;4953768;28;20668;-74
2022/03/28 05:26:16;;;;;;;18.47;11.23;;;3.10;99.90;;;;;;4953619;28;20208;-75
2022/03/28 05:28:41;;;;;;;21.43;9.43;;;3.10;99.90;;;;;;4953567;29;20189;-74
2022/03/28 05:31:07;;;;;;;24.20;9.73;;;3.10;99.90;;;;;;4953198;28;20293;-73
2022/03/28 05:33:33;;;;;;;16.20;9.93;;;3.20;99.90;;;;;;4943706;28;20180;-75
2022/03/28 05:35:59;;;;;;;28.03;9.50;;;3.20;99.90;;;;;;4947264;28;20444;-74
2022/03/28 05:38:24;;;;;;;16.23;9.67;;;3.30;99.90;;;;;;4951222;28;20651;-74
2022/03/28 05:40:50;;;;;;;20.87;9.90;;;3.40;99.90;;;;;;4953176;28;20185;-74
2022/03/28 05:43:16;;;;;;;22.60;10.47;;;3.40;99.90;;;;;;4952775;29;20183;-75
2022/03/28 05:45:42;;;;;;;18.27;10.47;;;3.50;99.90;;;;;;4952149;29;20182;-74
2022/03/28 05:48:07;;;;;;;24.30;10.97;;;3.50;99.90;;;;;;4953421;28;20411;-75
2022/03/28 05:50:33;;;;;;;23.00;11.03;;;3.60;99.90;;;;;;4953040;28;20677;-75
2022/03/28 05:52:59;;;;;;;18.27;9.40;;;3.70;99.90;;;;;;4952301;29;20705;-75
2022/03/28 05:55:24;;;;;;;21.43;10.90;;;3.80;99.90;;;;;;4953230;29;20175;-75
2022/03/28 05:57:50;;;;;;;24.30;10.90;;;3.90;99.90;;;;;;4953342;29;20277;-76
2022/03/28 06:00:15;;;;;;;14.30;8.50;;;4.00;99.90;;;;;;4953214;29;20179;-74
2022/03/28 06:02:42;;;;;;;18.63;10.33;;;4.10;99.90;;;;;;4951928;29;20203;-75
2022/03/28 06:05:09;;;;;;;18.53;9.90;;;4.30;99.90;;;;;;4956124;28;20269;-75
2022/03/28 06:07:35;;;;;;;21.10;10.80;;;4.60;99.90;;;;;;4955658;28;20417;-75
2022/03/28 06:10:02;;;;;;;14.63;9.33;;;5.00;99.90;;;;;;4954539;29;20511;-75
2022/03/28 06:12:28;;;;;;;23.40;9.90;;;5.90;99.90;;;;;;4956479;28;20217;-72
2022/03/28 06:14:54;;;;;;;25.23;10.67;;;7.20;99.90;;;;;;4957141;29;20922;-73
2022/03/28 06:17:21;;;;;;;16.77;9.30;;;8.70;99.90;;;;;;4953896;29;20668;-73
2022/03/28 06:19:47;;;;;;;21.77;10.47;;;9.80;99.90;;;;;;4955452;28;20281;-73
2022/03/28 06:22:13;;;;;;;20.30;10.00;;;10.90;99.90;;;;;;4959840;29;20445;-73
2022/03/28 06:24:39;;;;;;;14.77;10.70;;;11.70;99.90;;;;;;4959396;29;20185;-73
2022/03/28 06:27:05;;;;;;;17.93;10.40;;;12.40;99.90;;;;;;4958686;29;20268;-73
2022/03/28 06:29:30;;;;;;;16.13;9.00;;;13.00;99.90;;;;;;4958241;29;20420;-74
2022/03/28 06:31:56;;;;;;;28.50;12.23;;;13.60;99.90;;;;;;4959354;29;20307;-74
2022/03/28 06:34:23;;;;;;;14.60;10.47;;;13.90;99.90;;;;;;4959892;29;20177;-73
2022/03/28 06:36:48;;;;;;;18.27;10.53;;;14.10;99.90;;;;;;4958431;29;20188;-71
2022/03/28 06:39:15;;;;;;;22.03;11.93;;;14.60;99.90;;;;;;4959449;28;20412;-71
2022/03/28 06:41:41;;;;;;;19.20;11.67;;;15.20;99.90;;;;;;4958638;28;20227;-74
2022/03/28 06:44:13;;;;;;;26.63;11.80;;;15.70;99.90;;;;;;4959071;28;20457;-73
2022/03/28 06:46:40;;;;;;;26.03;11.80;;;16.20;99.90;;;;;;4960155;28;20420;-74
2022/03/28 06:49:06;;;;;;;18.23;11.20;;;16.50;99.90;;;;;;4960592;28;20423;-74
2022/03/28 06:51:33;;;;;;;23.63;11.70;;;16.90;99.90;;;;;;4959272;28;20466;-74
2022/03/28 06:54:00;;;;;;;20.23;11.90;;;17.10;99.90;;;;;;4957185;28;20524;-74
2022/03/28 06:56:25;;;;;;;18.50;11.10;;;17.40;99.90;;;;;;4958444;28;20432;-73
2022/03/28 06:58:52;;;;;;;27.10;12.20;;;17.60;99.90;;;;;;4958761;28;20412;-73
2022/03/28 07:01:17;;;;;;;21.70;10.80;;;17.70;99.90;;;;;;4956137;28;20197;-74
2022/03/28 07:03:43;;;;;;;24.17;11.10;;;17.50;99.90;;;;;;4956738;29;20426;-74
2022/03/28 07:06:09;;;;;;;22.33;12.27;;;17.40;98.90;;;;;;4956164;29;20173;-74
2022/03/28 07:08:35;;;;;;;29.03;14.17;;;17.20;99.40;;;;;;4956107;29;20177;-73
2022/03/28 07:11:02;;;;;;;20.10;12.07;;;17.00;98.80;;;;;;4955598;29;20203;-75
2022/03/28 07:13:27;;;;;;;15.60;10.90;;;16.50;99.00;;;;;;4955916;28;20842;-74
2022/03/28 07:15:53;;;;;;;19.40;12.17;;;16.30;99.30;;;;;;4955806;29;20420;-74
2022/03/28 07:18:19;;;;;;;24.07;12.13;;;16.20;99.80;;;;;;4956053;28;20177;-75
2022/03/28 07:20:45;;;;;;;19.73;11.37;;;15.80;99.60;;;;;;4955684;28;20642;-75
2022/03/28 07:23:12;;;;;;;19.33;11.80;;;15.90;99.90;;;;;;4954641;28;20419;-75
2022/03/28 07:25:38;;;;;;;24.97;13.10;;;15.90;99.90;;;;;;4955553;28;20173;-75
2022/03/28 07:28:08;;;;;;;30.70;14.07;;;15.90;99.90;;;;;;4955701;29;20423;-75
2022/03/28 07:30:34;;;;;;;21.40;12.57;;;16.00;99.80;;;;;;4953652;28;20200;-74
2022/03/28 07:33:02;;;;;;;21.93;13.67;;;16.10;99.90;;;;;;4954846;29;20468;-76
2022/03/28 07:35:29;;;;;;;22.47;13.20;;;16.10;98.60;;;;;;4955527;28;20804;-75
2022/03/28 07:37:54;;;;;;;22.50;12.80;;;16.20;99.60;;;;;;4954186;29;20431;-74
2022/03/28 07:40:20;;;;;;;17.50;11.97;;;16.50;99.10;;;;;;4955658;29;20412;-75
2022/03/28 07:42:46;;;;;;;29.10;12.30;;;16.30;99.70;;;;;;4955424;28;20654;-75
2022/03/28 07:45:14;;;;;;;28.27;12.97;;;16.60;98.90;;;;;;4955537;28;20181;-74
2022/03/28 07:47:40;;;;;;;35.87;13.23;;;16.80;98.70;;;;;;4955177;29;20452;-74
2022/03/28 07:50:07;;;;;;;54.70;13.70;;;16.90;97.40;;;;;;4955356;29;20803;-74
2022/03/28 07:52:34;;;;;;;31.80;13.20;;;17.00;97.90;;;;;;4954837;29;20464;-74
2022/03/28 07:55:00;;;;;;;31.27;14.47;;;17.30;97.40;;;;;;4955164;29;20437;-74
2022/03/28 07:57:26;;;;;;;32.33;14.13;;;17.30;96.60;;;;;;4955226;29;20480;-75
2022/03/28 07:59:52;;;;;;;35.07;13.20;;;17.50;97.30;;;;;;4954973;29;20419;-75
2022/03/28 08:02:18;;;;;;;22.83;13.53;;;17.80;96.40;;;;;;4955005;29;20436;-74
2022/03/28 08:04:45;;;;;;;26.53;13.30;;;17.90;95.40;;;;;;4954893;29;20417;-74
2022/03/28 08:07:11;;;;;;;18.67;12.63;;;17.90;96.00;;;;;;4955237;28;20173;-74
2022/03/28 08:09:40;;;;;;;23.70;14.03;;;18.00;95.70;;;;;;4954745;28;20471;-74
2022/03/28 08:12:07;;;;;;;27.00;14.50;;;17.90;95.00;;;;;;4954802;29;20468;-74
2022/03/28 08:14:34;;;;;;;27.37;14.30;;;17.90;94.20;;;;;;4955138;29;21023;-75
2022/03/28 08:17:00;;;;;;;24.07;14.10;;;18.40;94.00;;;;;;4954880;28;20936;-75
2022/03/28 08:19:25;;;;;;;21.83;14.33;;;18.70;93.50;;;;;;4953502;29;20438;-74
2022/03/28 08:21:51;;;;;;;36.17;17.33;;;18.90;93.30;;;;;;4954395;29;20432;-73
2022/03/28 08:24:18;;;;;;;29.33;13.37;;;19.20;92.20;;;;;;4954989;28;20191;-73
2022/03/28 08:26:46;;;;;;;27.20;13.10;;;19.10;92.30;;;;;;4954411;29;20693;-74
2022/03/28 08:29:11;;;;;;;29.30;14.20;;;19.40;91.40;;;;;;4954660;29;20412;-74
2022/03/28 08:31:37;;;;;;;23.30;14.10;;;19.70;92.50;;;;;;4953783;29;20995;-74
2022/03/28 08:34:03;;;;;;;30.43;15.37;;;19.70;91.60;;;;;;4954739;28;20187;-74
2022/03/28 08:36:29;;;;;;;26.50;14.70;;;19.80;92.10;;;;;;4954272;28;20260;-75
2022/03/28 08:38:54;;;;;;;31.93;14.20;;;20.20;90.40;;;;;;4954676;29;20845;-75
2022/03/28 08:41:25;;;;;;;24.67;13.50;;;19.90;90.00;;;;;;4954155;28;20732;-75
2022/03/28 08:43:50;;;;;;;27.10;15.10;;;20.20;88.70;;;;;;4954379;28;20556;-75
2022/03/28 08:46:17;;;;;;;22.50;12.47;;;20.00;87.40;;;;;;4954439;28;20421;-74
2022/03/28 08:48:43;;;;;;;25.03;14.60;;;20.50;90.10;;;;;;4954169;28;20316;-74
2022/03/28 08:51:10;;;;;;;26.07;13.80;;;20.70;86.70;;;;;;4953936;29;20797;-74
2022/03/28 08:53:36;;;;;;;24.00;14.37;;;20.90;85.00;;;;;;4954033;29;20427;-74
2022/03/28 08:56:02;;;;;;;27.23;14.50;;;20.80;84.00;;;;;;4954226;29;20418;-74
2022/03/28 08:58:28;;;;;;;32.73;14.53;;;21.00;86.60;;;;;;4954243;29;20417;-74
2022/03/28 09:00:54;;;;;;;23.70;13.93;;;21.50;85.70;;;;;;4953966;28;20423;-74
2022/03/28 09:03:19;;;;;;;27.93;15.80;;;21.50;84.50;;;;;;4954065;29;20208;-74
2022/03/28 09:05:49;;;;;;;26.17;14.40;;;21.70;84.00;;;;;;4954014;28;20240;-74
2022/03/28 09:08:15;;;;;;;27.37;14.23;;;21.40;81.50;;;;;;4953058;29;20177;-75
2022/03/28 09:10:46;;;;;;;29.90;16.27;;;21.80;82.00;;;;;;4953497;29;20584;-75
2022/03/28 09:13:16;;;;;;;21.67;15.07;;;21.60;80.60;;;;;;4954477;28;20432;-74
2022/03/28 09:16:05;;;;;;;26.27;15.37;;;21.80;79.90;;;;;;4952437;29;20456;-74
2022/03/28 09:18:34;;;;;;;24.73;15.40;;;22.00;82.00;;;;;;4953903;29;20405;-74
2022/03/28 09:21:02;;;;;;;23.57;15.40;;;22.10;78.00;;;;;;4953391;28;20495;-75
2022/03/28 09:23:52;;;;;;;34.23;15.93;;;22.30;81.80;;;;;;4953668;29;20416;-74
2022/03/28 09:26:20;;;;;;;24.47;14.13;;;22.10;78.20;;;;;;4953622;28;20489;-75
2022/03/28 09:28:53;;;;;;;28.90;15.63;;;22.00;81.30;;;;;;4953641;28;20494;-75
2022/03/28 09:31:20;;;;;;;31.03;16.13;;;22.10;78.90;;;;;;4952988;28;20471;-74
2022/03/28 09:34:03;;;;;;;31.23;14.63;;;22.30;78.10;;;;;;4953728;29;20455;-74
2022/03/28 09:36:49;;;;;;;30.57;15.70;;;22.30;78.00;;;;;;4954089;29;20921;-75
2022/03/28 09:39:21;;;;;;;28.23;16.17;;;22.50;75.80;;;;;;4953670;28;20495;-74
2022/03/28 09:42:08;;;;;;;30.70;15.53;;;22.40;76.10;;;;;;4952967;29;20494;-75
2022/03/28 09:44:39;;;;;;;28.67;16.10;;;22.20;75.40;;;;;;4953569;28;20409;-74
2022/03/28 09:47:17;;;;;;;32.50;16.37;;;22.40;75.70;;;;;;4953389;29;20416;-74
2022/03/28 09:49:43;;;;;;;24.50;15.90;;;22.40;76.20;;;;;;4953395;29;20408;-74
2022/03/28 09:52:14;;;;;;;28.03;16.77;;;22.90;76.50;;;;;;4951666;29;20468;-74
2022/03/28 09:54:51;;;;;;;36.67;16.07;;;23.00;76.70;;;;;;4952834;29;20782;-75
2022/03/28 09:57:22;;;;;;;28.77;15.60;;;23.30;77.20;;;;;;4952118;29;20424;-75
2022/03/28 09:59:48;;;;;;;24.37;16.23;;;23.30;73.80;;;;;;4953341;29;20404;-76
2022/03/28 10:02:15;;;;;;;27.47;16.10;;;23.70;73.60;;;;;;4953199;29;20431;-76
2022/03/28 10:04:45;;;;;;;28.20;16.13;;;23.90;76.60;;;;;;4953157;28;20420;-75
2022/03/28 10:07:11;;;;;;;28.37;16.80;;;24.00;72.20;;;;;;4953398;28;20423;-75
2022/03/28 10:09:37;;;;;;;27.60;16.10;;;24.00;73.50;;;;;;4953068;29;20417;-75
2022/03/28 10:12:04;;;;;;;28.93;18.07;;;24.00;72.40;;;;;;4952980;29;20208;-76
2022/03/28 10:14:31;;;;;;;30.53;16.53;;;24.00;70.20;;;;;;4952976;29;20474;-75
2022/03/28 10:16:57;;;;;;;28.43;17.00;;;24.20;71.10;;;;;;4953220;29;20499;-75
2022/03/28 10:19:23;;;;;;;32.63;17.83;;;24.00;69.10;;;;;;4953531;28;20760;-76
2022/03/28 10:21:49;;;;;;;30.83;17.10;;;24.00;70.40;;;;;;4953053;29;20468;-76
2022/03/28 10:24:25;;;;;;;27.00;16.20;;;24.00;70.70;;;;;;4953169;28;20763;-75
2022/03/28 10:26:54;;;;;;;32.43;18.20;;;23.70;68.20;;;;;;4953070;29;20477;-75
2022/03/28 10:29:22;;;;;;;36.10;18.77;;;23.60;69.10;;;;;;4953177;29;20419;-76
2022/03/28 10:31:56;;;;;;;30.17;16.77;;;24.00;68.00;;;;;;4952314;28;20475;-75
2022/03/28 10:34:46;;;;;;;37.40;16.90;;;24.10;69.00;;;;;;4953115;28;20423;-75
2022/03/28 10:37:41;;;;;;;36.27;18.70;;;24.00;67.70;;;;;;4952891;28;20780;-75
2022/03/28 10:40:16;;;;;;;34.07;18.50;;;24.00;66.70;;;;;;4952982;28;20423;-76
2022/03/28 10:42:52;;;;;;;37.83;19.93;;;24.20;65.40;;;;;;4952859;28;20979;-74
2022/03/28 10:45:19;;;;;;;36.27;17.97;;;24.00;65.90;;;;;;4953039;29;20440;-75
2022/03/28 10:47:53;;;;;;;29.47;18.40;;;24.10;66.50;;;;;;4953331;28;20424;-75
2022/03/28 10:50:24;;;;;;;28.80;17.73;;;24.00;65.40;;;;;;4953540;29;20424;-75
2022/03/28 10:53:17;;;;;;;32.07;17.30;;;23.90;66.10;;;;;;4953525;29;20467;-75
2022/03/28 10:55:52;;;;;;;32.23;18.70;;;24.40;66.20;;;;;;4950736;29;20790;-74
2022/03/28 10:58:39;;;;;;;32.47;18.50;;;24.00;65.30;;;;;;4952781;29;20415;-74
2022/03/28 11:01:07;;;;;;;34.20;18.27;;;24.30;64.80;;;;;;4952847;28;20431;-74
2022/03/28 11:04:03;;;;;;;25.73;16.53;;;23.90;64.30;;;;;;4952599;29;20428;-74
2022/03/28 11:06:52;;;;;;;29.07;17.90;;;23.70;64.20;;;;;;4953530;28;20420;-74
2022/03/28 11:09:35;;;;;;;27.20;16.47;;;23.70;64.30;;;;;;4956271;29;20759;-74
2022/03/28 11:12:06;;;;;;;31.03;15.53;;;24.00;64.80;;;;;;4956103;29;21069;-74
2022/03/28 11:14:40;;;;;;;26.87;15.43;;;24.30;65.90;;;;;;4955840;29;20420;-74
2022/03/28 11:17:23;;;;;;;31.50;16.33;;;24.30;63.90;;;;;;4956150;29;20471;-74
2022/03/28 11:20:05;;;;;;;27.30;15.43;;;24.60;64.40;;;;;;4955828;28;20444;-73
2022/03/28 11:22:50;;;;;;;26.07;16.23;;;24.40;62.30;;;;;;4955752;29;20436;-74
2022/03/28 11:25:30;;;;;;;24.63;15.57;;;24.20;63.60;;;;;;4950557;29;20500;-74
2022/03/28 11:28:09;;;;;;;32.30;16.80;;;24.20;63.80;;;;;;4949816;29;20503;-74
2022/03/28 11:30:37;;;;;;;35.57;17.73;;;24.60;65.90;;;;;;4952914;29;20452;-74
2022/03/28 11:33:08;;;;;;;30.77;16.77;;;24.60;63.80;;;;;;4955726;28;20495;-74
2022/03/28 11:35:34;;;;;;;22.73;14.17;;;24.70;64.90;;;;;;4955382;28;20424;-74
2022/03/28 11:38:01;;;;;;;28.17;16.30;;;24.70;64.80;;;;;;4955628;28;20495;-74
2022/03/28 11:40:36;;;;;;;29.77;16.90;;;24.60;63.80;;;;;;4955455;28;20212;-75
2022/03/28 11:43:02;;;;;;;31.63;17.50;;;24.50;64.00;;;;;;4955799;28;20794;-74
2022/03/28 11:45:28;;;;;;;33.03;18.10;;;24.10;63.50;;;;;;4955302;28;20424;-74
2022/03/28 11:47:54;;;;;;;29.70;15.97;;;24.10;64.40;;;;;;4955572;28;20235;-74
2022/03/28 11:50:20;;;;;;;22.67;16.27;;;24.30;65.20;;;;;;4954818;29;20428;-74
2022/03/28 11:52:52;;;;;;;26.57;16.20;;;24.50;65.20;;;;;;4954833;28;20478;-74
2022/03/28 11:55:21;;;;;;;31.00;17.20;;;24.50;65.70;;;;;;4955357;28;20248;-75
2022/03/28 12:00:36;;;;;;;29.70;15.80;;;24.30;68.50;;;;;;4955139;29;20887;-73
2022/03/28 12:03:05;;;;;;;24.73;15.37;;;24.30;69.40;;;;;;4955149;28;20491;-74
2022/03/28 12:05:36;;;;;;;29.20;15.27;;;24.30;69.00;;;;;;4955053;28;20792;-74
2022/03/28 12:08:24;;;;;;;31.63;17.50;;;24.10;70.20;;;;;;4955114;28;20408;-74
2022/03/28 12:10:52;;;;;;;29.67;17.13;;;24.20;70.10;;;;;;4954722;28;20419;-74
2022/03/28 12:13:23;;;;;;;31.50;16.63;;;24.10;69.80;;;;;;4954916;28;20856;-74
2022/03/28 12:15:51;;;;;;;30.87;16.07;;;24.10;71.10;;;;;;4954874;28;20408;-74
2022/03/28 12:18:18;;;;;;;30.60;16.57;;;23.80;69.00;;;;;;4954450;28;20930;-74
2022/03/28 12:20:46;;;;;;;25.50;14.77;;;23.80;71.50;;;;;;4954241;28;20408;-74
2022/03/28 12:23:13;;;;;;;25.90;14.23;;;23.80;70.90;;;;;;4953548;29;20929;-74
2022/03/28 12:25:42;;;;;;;28.40;15.20;;;23.50;70.50;;;;;;4954622;28;20882;-74
2022/03/28 12:28:11;;;;;;;25.07;15.57;;;23.40;71.60;;;;;;4954806;28;20459;-74
2022/03/28 12:30:42;;;;;;;26.40;15.63;;;23.50;72.90;;;;;;4955128;28;20416;-72
2022/03/28 12:33:22;;;;;;;24.80;14.03;;;23.20;71.60;;;;;;4955848;28;20479;-74
2022/03/28 12:36:12;;;;;;;26.03;14.13;;;23.20;72.60;;;;;;4955214;28;20424;-74
2022/03/28 12:38:43;;;;;;;32.10;14.60;;;23.20;71.10;;;;;;4954907;29;20435;-74
2022/03/28 12:41:12;;;;;;;28.03;14.97;;;23.20;72.20;;;;;;4954043;28;20439;-75
2022/03/28 12:43:45;;;;;;;21.23;13.67;;;22.80;69.90;;;;;;4954360;28;20432;-75
2022/03/28 12:46:10;;;;;;;26.43;12.87;;;22.70;70.60;;;;;;4954275;28;20420;-74
2022/03/28 12:48:44;;;;;;;19.57;12.83;;;22.80;70.40;;;;;;4952910;29;20499;-74
2022/03/28 12:51:11;;;;;;;23.43;13.13;;;22.80;70.00;;;;;;4953809;28;20275;-75
2022/03/28 12:53:39;;;;;;;23.43;14.10;;;22.80;71.80;;;;;;4954205;28;20416;-75
2022/03/28 12:56:19;;;;;;;30.43;13.60;;;22.80;71.20;;;;;;4954141;28;20440;-75
2022/03/28 12:58:56;;;;;;;22.70;13.07;;;23.00;71.80;;;;;;4954227;28;20408;-75
2022/03/28 13:01:28;;;;;;;21.07;12.67;;;23.00;70.80;;;;;;4953789;28;20814;-74
2022/03/28 13:04:17;;;;;;;22.10;12.70;;;22.80;72.00;;;;;;4952984;29;20424;-75
2022/03/28 13:06:44;;;;;;;21.83;13.50;;;22.70;71.30;;;;;;4953847;28;20415;-75
2022/03/28 13:09:20;;;;;;;22.50;13.40;;;22.60;70.60;;;;;;4954087;28;20516;-74
2022/03/28 13:11:49;;;;;;;22.50;13.30;;;22.60;72.40;;;;;;4953482;28;21000;-75
2022/03/28 13:14:26;;;;;;;21.70;14.90;;;22.40;70.70;;;;;;4953889;28;20507;-76
2022/03/28 13:17:08;;;;;;;19.30;12.67;;;22.30;69.70;;;;;;4953881;28;20435;-75
2022/03/28 13:19:38;;;;;;;25.33;12.10;;;22.20;69.10;;;;;;4953125;28;20945;-70
2022/03/28 13:22:06;;;;;;;18.50;10.73;;;22.40;71.70;;;;;;4954627;28;20440;-71
2022/03/28 13:24:34;;;;;;;18.20;12.53;;;22.40;70.70;;;;;;4954392;28;20420;-71
2022/03/28 13:29:51;;;;;;;22.20;12.90;;;22.40;72.00;;;;;;4953755;28;20431;-71
2022/03/28 13:32:17;;;;;;;21.03;11.87;;;22.50;69.60;;;;;;4953628;28;20526;-71
2022/03/28 13:34:43;;;;;;;21.03;12.17;;;22.40;70.00;;;;;;4954061;28;20412;-71
2022/03/28 13:37:08;;;;;;;15.60;11.50;;;22.30;67.60;;;;;;4953763;29;20416;-70
2022/03/28 13:39:35;;;;;;;17.83;11.73;;;22.40;68.80;;;;;;4958968;28;20183;-71
2022/03/28 13:42:01;;;;;;;18.43;12.50;;;22.40;71.20;;;;;;4972582;28;20191;-71
2022/03/28 13:44:27;;;;;;;26.03;13.80;;;22.30;66.80;;;;;;4972701;28;20425;-71
2022/03/28 13:46:52;;;;;;;18.60;11.37;;;22.10;66.80;;;;;;4972594;28;20412;-71
2022/03/28 13:49:18;;;;;;;24.40;12.83;;;22.00;68.20;;;;;;4972670;28;20250;-71
2022/03/28 13:51:44;;;;;;;16.63;12.00;;;22.00;69.20;;;;;;4972035;28;20215;-71
2022/03/28 13:54:10;;;;;;;23.27;12.90;;;21.90;67.50;;;;;;4972737;28;20168;-71
2022/03/28 13:56:37;;;;;;;26.77;12.43;;;21.80;66.80;;;;;;4972353;28;20799;-71
2022/03/28 13:59:03;;;;;;;26.10;11.77;;;21.80;64.60;;;;;;4972634;28;20415;-71
2022/03/28 14:01:29;;;;;;;13.57;10.07;;;21.70;68.10;;;;;;4972152;28;20952;-71
2022/03/28 14:03:57;;;;;;;17.53;10.43;;;21.90;66.90;;;;;;4972555;28;20850;-71
2022/03/28 14:06:23;;;;;;;19.63;10.50;;;21.80;64.60;;;;;;4972286;28;20423;-71
2022/03/28 14:08:49;;;;;;;17.13;10.43;;;21.80;66.70;;;;;;4972261;28;20482;-71
2022/03/28 14:11:15;;;;;;;13.73;10.67;;;21.80;66.20;;;;;;4971912;28;20443;-71
2022/03/28 14:13:41;;;;;;;24.00;11.30;;;21.90;67.30;;;;;;4972166;28;20676;-71